AFL126 UUEE-OMDB
Flight info
| Callsign | AFL126 |
|---|---|
| Flight time | N/A |
| Altitude | 41000 |
| Route | K0895F410 EMGAS3H EMGAS T828 OLBEG N72 WGD A927 SL/K0902F400 A964 NOKLI/K0909F410 N72 BISNA/N0494F410 N72 PAXID Z725 DAVMI M718 SAV L124 PEKAM P574 SYZ A418 KIS B547 SIR/N0505F350 L223 VUTEB VUTEB3C |
| Aircraft | A359/H-SDE2E3GHIJ3J4J5LM1ORWXY/LB1D1 |
Departure
| Time | 2026-05-07 20:13 |
|---|---|
| Airport | Sheremetyevo International Airport (UUEE) |
Arrival
| Time | N/A |
|---|---|
| Airport | Dubai International Airport (OMDB) |
| Time | Latitude | Longitude | Altitude | Speed | Heading |
|---|---|---|---|---|---|
| 2026-05-07 19:48 | 55.97278 | 37.44249 | 647 ft | 0 kts | 45° |
| 2026-05-07 19:58 | 55.97278 | 37.44250 | 645 ft | 0 kts | 44° |
| 2026-05-07 20:10 | 55.97323 | 37.44326 | 645 ft | 13 kts | 44° |
| 2026-05-07 20:10 | 55.97404 | 37.44403 | 648 ft | 14 kts | 18° |
| 2026-05-07 20:10 | 55.97435 | 37.44411 | 648 ft | 0 kts | 0° |
| 2026-05-07 20:11 | 55.97436 | 37.44411 | 648 ft | 1 kts | 0° |
| 2026-05-07 20:11 | 55.97474 | 37.44403 | 646 ft | 10 kts | 348° |
| 2026-05-07 20:12 | 55.97551 | 37.44328 | 645 ft | 16 kts | 294° |
| 2026-05-07 20:12 | 55.97535 | 37.44134 | 646 ft | 18 kts | 255° |
| 2026-05-07 20:12 | 55.97501 | 37.43898 | 648 ft | 55 kts | 254° |
| 2026-05-07 20:12 | 55.97321 | 37.42715 | 651 ft | 144 kts | 256° |
| 2026-05-07 20:13 | 55.96889 | 37.40805 | 953 ft | 190 kts | 248° |
| 2026-05-07 20:13 | 55.96320 | 37.38738 | 2045 ft | 188 kts | 251° |
| 2026-05-07 20:13 | 55.96064 | 37.36601 | 2581 ft | 198 kts | 260° |
| 2026-05-07 20:13 | 55.95830 | 37.34089 | 2906 ft | 212 kts | 259° |
| 2026-05-07 20:14 | 55.95523 | 37.31368 | 3112 ft | 236 kts | 257° |
| 2026-05-07 20:14 | 55.95135 | 37.28427 | 3501 ft | 248 kts | 256° |
| 2026-05-07 20:14 | 55.94710 | 37.25424 | 4157 ft | 251 kts | 254° |
| 2026-05-07 20:14 | 55.94269 | 37.22409 | 4840 ft | 252 kts | 253° |
| 2026-05-07 20:15 | 55.93829 | 37.19449 | 5496 ft | 253 kts | 253° |
| 2026-05-07 20:15 | 55.93374 | 37.16420 | 6180 ft | 254 kts | 252° |
| 2026-05-07 20:15 | 55.92913 | 37.13372 | 6815 ft | 255 kts | 252° |
| 2026-05-07 20:15 | 55.92447 | 37.10303 | 7478 ft | 256 kts | 252° |
| 2026-05-07 20:16 | 55.91987 | 37.07275 | 8149 ft | 256 kts | 252° |
| 2026-05-07 20:16 | 55.91654 | 37.04149 | 8828 ft | 260 kts | 264° |
| 2026-05-07 20:16 | 55.91940 | 37.00936 | 9485 ft | 270 kts | 286° |
| 2026-05-07 20:16 | 55.93005 | 36.98111 | 9817 ft | 283 kts | 310° |
| 2026-05-07 20:17 | 55.94587 | 36.95939 | 9890 ft | 289 kts | 318° |
| 2026-05-07 20:17 | 55.96269 | 36.93935 | 9885 ft | 291 kts | 319° |
| 2026-05-07 20:17 | 55.98091 | 36.92286 | 9882 ft | 302 kts | 336° |
| 2026-05-07 20:17 | 56.00219 | 36.91974 | 9887 ft | 316 kts | 4° |
| 2026-05-07 20:18 | 56.02292 | 36.93446 | 10010 ft | 330 kts | 28° |
| 2026-05-07 20:18 | 56.04265 | 36.95720 | 10198 ft | 347 kts | 31° |
| 2026-05-07 20:18 | 56.06218 | 36.98067 | 10425 ft | 361 kts | 31° |
| 2026-05-07 20:18 | 56.08348 | 37.00606 | 10679 ft | 374 kts | 31° |
| 2026-05-07 20:19 | 56.10450 | 37.03397 | 10935 ft | 387 kts | 41° |
| 2026-05-07 20:19 | 56.12083 | 37.07270 | 11354 ft | 394 kts | 64° |
| 2026-05-07 20:19 | 56.12978 | 37.11922 | 11839 ft | 396 kts | 76° |
| 2026-05-07 20:19 | 56.13651 | 37.16725 | 12302 ft | 400 kts | 77° |
| 2026-05-07 20:20 | 56.14309 | 37.21590 | 12790 ft | 403 kts | 78° |
| 2026-05-07 20:20 | 56.14604 | 37.26576 | 13235 ft | 403 kts | 95° |
| 2026-05-07 20:20 | 56.13996 | 37.31443 | 13670 ft | 398 kts | 116° |
| 2026-05-07 20:20 | 56.12625 | 37.35372 | 14008 ft | 393 kts | 136° |
| 2026-05-07 20:21 | 56.10562 | 37.38357 | 14441 ft | 384 kts | 155° |
| 2026-05-07 20:21 | 56.08161 | 37.40474 | 14935 ft | 383 kts | 160° |
| 2026-05-07 20:21 | 56.05737 | 37.42463 | 15388 ft | 385 kts | 160° |
| 2026-05-07 20:21 | 56.03302 | 37.44481 | 15825 ft | 388 kts | 160° |
| 2026-05-07 20:22 | 56.00873 | 37.46503 | 16308 ft | 390 kts | 160° |
| 2026-05-07 20:22 | 55.98401 | 37.48599 | 16742 ft | 394 kts | 158° |
| 2026-05-07 20:22 | 55.96113 | 37.51295 | 17149 ft | 405 kts | 143° |
| 2026-05-07 20:22 | 55.94288 | 37.55201 | 17585 ft | 416 kts | 124° |
| 2026-05-07 20:23 | 55.93184 | 37.59976 | 18003 ft | 424 kts | 107° |
| 2026-05-07 20:23 | 55.92568 | 37.65150 | 18392 ft | 429 kts | 103° |
| 2026-05-07 20:23 | 55.92020 | 37.70340 | 18730 ft | 431 kts | 103° |
| 2026-05-07 20:23 | 55.91199 | 37.75258 | 19070 ft | 430 kts | 115° |
| 2026-05-07 20:24 | 55.89882 | 37.79950 | 19448 ft | 430 kts | 122° |
| 2026-05-07 20:24 | 55.88428 | 37.84612 | 19815 ft | 432 kts | 122° |
| 2026-05-07 20:24 | 55.86796 | 37.89115 | 20166 ft | 430 kts | 131° |
| 2026-05-07 20:24 | 55.84749 | 37.92849 | 20512 ft | 426 kts | 145° |
| 2026-05-07 20:25 | 55.82356 | 37.95589 | 20854 ft | 421 kts | 158° |
| 2026-05-07 20:25 | 55.79627 | 37.97348 | 21203 ft | 415 kts | 171° |
| 2026-05-07 20:25 | 55.76883 | 37.97974 | 21545 ft | 410 kts | 183° |
| 2026-05-07 20:25 | 55.74053 | 37.97523 | 21878 ft | 406 kts | 195° |
| 2026-05-07 20:26 | 55.71363 | 37.96004 | 22206 ft | 402 kts | 207° |
| 2026-05-07 20:26 | 55.68947 | 37.93522 | 22519 ft | 400 kts | 219° |
| 2026-05-07 20:26 | 55.66873 | 37.90289 | 22854 ft | 399 kts | 227° |
| 2026-05-07 20:26 | 55.64807 | 37.86962 | 23170 ft | 404 kts | 220° |
| 2026-05-07 20:27 | 55.62460 | 37.84174 | 23484 ft | 408 kts | 214° |
| 2026-05-07 20:27 | 55.60038 | 37.81627 | 23762 ft | 411 kts | 213° |
| 2026-05-07 20:27 | 55.57587 | 37.79094 | 24014 ft | 413 kts | 213° |
| 2026-05-07 20:27 | 55.55081 | 37.76510 | 24238 ft | 417 kts | 213° |
| 2026-05-07 20:28 | 55.52594 | 37.73994 | 24451 ft | 421 kts | 211° |
| 2026-05-07 20:28 | 55.49889 | 37.71941 | 24748 ft | 426 kts | 201° |
| 2026-05-07 20:28 | 55.46969 | 37.70785 | 25021 ft | 432 kts | 192° |
| 2026-05-07 20:28 | 55.43973 | 37.70050 | 25295 ft | 435 kts | 191° |
| 2026-05-07 20:29 | 55.41026 | 37.69363 | 25568 ft | 436 kts | 191° |
| 2026-05-07 20:29 | 55.37971 | 37.68640 | 25873 ft | 438 kts | 191° |
| 2026-05-07 20:29 | 55.34956 | 37.67918 | 26158 ft | 441 kts | 191° |
| 2026-05-07 20:29 | 55.31909 | 37.67185 | 26448 ft | 443 kts | 191° |
| 2026-05-07 20:30 | 55.28863 | 37.66530 | 26744 ft | 447 kts | 188° |
| 2026-05-07 20:30 | 55.25689 | 37.66522 | 27050 ft | 454 kts | 179° |
| 2026-05-07 20:30 | 55.22600 | 37.67184 | 27393 ft | 458 kts | 175° |
| 2026-05-07 20:30 | 55.19468 | 37.67962 | 27716 ft | 460 kts | 175° |
| 2026-05-07 20:31 | 55.16274 | 37.68740 | 28068 ft | 463 kts | 175° |
| 2026-05-07 20:31 | 55.13075 | 37.69510 | 28429 ft | 465 kts | 175° |
| 2026-05-07 20:31 | 55.09905 | 37.70267 | 28784 ft | 468 kts | 175° |
| 2026-05-07 20:31 | 55.06669 | 37.71036 | 29133 ft | 471 kts | 175° |
| 2026-05-07 20:32 | 55.03422 | 37.71805 | 29498 ft | 473 kts | 175° |
| 2026-05-07 20:32 | 55.00132 | 37.72625 | 29829 ft | 477 kts | 173° |
| 2026-05-07 20:32 | 54.97036 | 37.73777 | 30137 ft | 481 kts | 169° |
| 2026-05-07 20:32 | 54.93805 | 37.75136 | 30438 ft | 484 kts | 169° |
| 2026-05-07 20:33 | 54.90525 | 37.76508 | 30758 ft | 486 kts | 169° |
| 2026-05-07 20:33 | 54.87186 | 37.77573 | 31054 ft | 486 kts | 174° |
| 2026-05-07 20:33 | 54.83855 | 37.78354 | 31365 ft | 489 kts | 175° |
| 2026-05-07 20:33 | 54.80467 | 37.79130 | 31665 ft | 491 kts | 175° |
| 2026-05-07 20:34 | 54.77050 | 37.79918 | 31952 ft | 493 kts | 175° |
| 2026-05-07 20:34 | 54.73641 | 37.80706 | 32201 ft | 496 kts | 175° |
| 2026-05-07 20:34 | 54.70216 | 37.81496 | 32427 ft | 499 kts | 175° |
| 2026-05-07 20:34 | 54.66748 | 37.82290 | 32710 ft | 500 kts | 175° |
| 2026-05-07 20:35 | 54.63297 | 37.82769 | 33078 ft | 498 kts | 180° |
| 2026-05-07 20:35 | 54.59847 | 37.82995 | 33431 ft | 498 kts | 180° |
| 2026-05-07 20:35 | 54.56412 | 37.83202 | 33772 ft | 498 kts | 180° |
| 2026-05-07 20:35 | 54.55200 | 37.83276 | 33901 ft | 498 kts | 180° |